Portada
METAR-TAF:

METAR-TAF

Aeroports :

Tateyama, Japó

latitud: 34-59N, longitud: 139-50E, altitud: 3 m

Observació

L'informe es va fer fa 10 hores i 57 minuts, a les 00:11 UTC
Vent 15 kt del Nord amb ràfegues de 31 kt
Temperatura 11°C
Humitat 40%
Pressió 1018 hPa
Visibilitat 10 km o més
Escasses núvols a una alçada de 2500 ft

METAR: RJTE 210011Z 36015G31KT 9999 FEW025 11/M02 Q1018 RMK 1CU025 A3007

Hora: 20:08 (11:08 UTC)


TAF: manca

Observacions i pronòstics meteorològics de més de 4000 aeroports (METAR i TAF).

Les estacions disponibles són els punts grocs i vermells al mapa.

Posi el ratolí al punt desitjat per veure el nom de l'estació.

Feu clic per veure les observacions i els pronòstics meteorològics.

Per canviar el mapa: feu clic els botons verds amb una creu de color negre per apropar; al botó verd amb un guió per allunyar la imatge; o en les fletxes verdes per a mapes adjacents.


METAR-TAF: